sensor_id;sensor_type;location;lat;lon;timestamp;pressure;altitude;pressure_sealevel;temperature;humidity
28354;BME280;15603;50.878;8.036;2023-11-19T00:01:10;143159.78;;;-0.46;100.00
28354;BME280;15603;50.878;8.036;2023-11-19T00:03:37;143183.88;;;-0.36;100.00
28354;BME280;15603;50.878;8.036;2023-11-19T00:06:04;143186.28;;;-0.35;100.00
28354;BME280;15603;50.878;8.036;2023-11-19T00:08:31;143206.78;;;-0.26;100.00
28354;BME280;15603;50.878;8.036;2023-11-19T00:10:59;143205.59;;;-0.27;100.00
28354;BME280;15603;50.878;8.036;2023-11-19T00:13:26;143179.06;;;-0.38;100.00
28354;BME280;15603;50.878;8.036;2023-11-19T00:15:53;143179.06;;;-0.38;100.00
28354;BME280;15603;50.878;8.036;2023-11-19T00:18:20;143186.28;;;-0.35;100.00
28354;BME280;15603;50.878;8.036;2023-11-19T00:20:48;143224.88;;;-0.18;100.00
28354;BME280;15603;50.878;8.036;2023-11-19T00:23:15;143270.69;;;0.01;100.00
28354;BME280;15603;50.878;8.036;2023-11-19T00:25:42;143275.50;;;0.03;100.00
28354;BME280;15603;50.878;8.036;2023-11-19T00:28:09;143241.75;;;-0.11;100.00
28354;BME280;15603;50.878;8.036;2023-11-19T00:30:37;143321.31;;;0.23;100.00
28354;BME280;15603;50.878;8.036;2023-11-19T00:33:04;143327.38;;;0.25;100.00
28354;BME280;15603;50.878;8.036;2023-11-19T00:35:32;143340.59;;;0.31;100.00
28354;BME280;15603;50.878;8.036;2023-11-19T00:37:59;143355.13;;;0.37;100.00
28354;BME280;15603;50.878;8.036;2023-11-19T00:40:27;143371.97;;;0.44;100.00
28354;BME280;15603;50.878;8.036;2023-11-19T00:42:54;143388.88;;;0.51;100.00
28354;BME280;15603;50.878;8.036;2023-11-19T00:45:21;143385.25;;;0.50;100.00
28354;BME280;15603;50.878;8.036;2023-11-19T00:47:48;143371.97;;;0.44;100.00
28354;BME280;15603;50.878;8.036;2023-11-19T00:50:16;143381.66;;;0.48;100.00
28354;BME280;15603;50.878;8.036;2023-11-19T00:52:43;143391.31;;;0.52;100.00
28354;BME280;15603;50.878;8.036;2023-11-19T00:55:10;143303.22;;;0.15;100.00
28354;BME280;15603;50.878;8.036;2023-11-19T00:57:38;143374.41;;;0.45;100.00
28354;BME280;15603;50.878;8.036;2023-11-19T01:00:06;143391.31;;;0.52;100.00
28354;BME280;15603;50.878;8.036;2023-11-19T01:02:46;143400.94;;;0.56;100.00
28354;BME280;15603;50.878;8.036;2023-11-19T01:05:13;143391.31;;;0.52;100.00
28354;BME280;15603;50.878;8.036;2023-11-19T01:07:41;143420.25;;;0.65;100.00
28354;BME280;15603;50.878;8.036;2023-11-19T01:10:08;143376.78;;;0.46;100.00
28354;BME280;15603;50.878;8.036;2023-11-19T01:12:35;143449.19;;;0.77;100.00
28354;BME280;15603;50.878;8.036;2023-11-19T01:15:05;143398.50;;;0.55;100.00
28354;BME280;15603;50.878;8.036;2023-11-19T01:17:34;143458.88;;;0.81;100.00
28354;BME280;15603;50.878;8.036;2023-11-19T01:20:01;143399.75;;;0.56;100.00
28354;BME280;15603;50.878;8.036;2023-11-19T01:22:29;143425.06;;;0.67;100.00
28354;BME280;15603;50.878;8.036;2023-11-19T01:24:56;143455.25;;;0.80;100.00
28354;BME280;15603;50.878;8.036;2023-11-19T01:27:24;143476.97;;;0.89;100.00
28354;BME280;15603;50.878;8.036;2023-11-19T01:29:51;143475.72;;;0.88;100.00
28354;BME280;15603;50.878;8.036;2023-11-19T01:32:18;143391.31;;;0.52;100.00
28354;BME280;15603;50.878;8.036;2023-11-19T01:34:45;143490.25;;;0.94;100.00
28354;BME280;15603;50.878;8.036;2023-11-19T01:37:13;143492.63;;;0.95;100.00
28354;BME280;15603;50.878;8.036;2023-11-19T01:39:44;143519.19;;;1.07;100.00
28354;BME280;15603;50.878;8.036;2023-11-19T01:42:12;143525.22;;;1.09;100.00
28354;BME280;15603;50.878;8.036;2023-11-19T01:44:39;143524.00;;;1.09;100.00
28354;BME280;15603;50.878;8.036;2023-11-19T01:47:06;143451.63;;;0.78;100.00
28354;BME280;15603;50.878;8.036;2023-11-19T01:49:34;143540.94;;;1.16;100.00
28354;BME280;15603;50.878;8.036;2023-11-19T01:52:01;143447.97;;;0.76;100.00
28354;BME280;15603;50.878;8.036;2023-11-19T01:54:29;143532.47;;;1.12;100.00
28354;BME280;15603;50.878;8.036;2023-11-19T01:56:56;143485.38;;;0.92;100.00
28354;BME280;15603;50.878;8.036;2023-11-19T01:59:24;143456.44;;;0.80;100.00
28354;BME280;15603;50.878;8.036;2023-11-19T02:01:54;143421.44;;;0.65;100.00
28354;BME280;15603;50.878;8.036;2023-11-19T02:04:25;143565.06;;;1.26;100.00
28354;BME280;15603;50.878;8.036;2023-11-19T02:06:56;143566.25;;;1.27;100.00
28354;BME280;15603;50.878;8.036;2023-11-19T02:09:24;143577.13;;;1.31;100.00
28354;BME280;15603;50.878;8.036;2023-11-19T02:11:52;143574.69;;;1.30;100.00
28354;BME280;15603;50.878;8.036;2023-11-19T02:14:24;143555.41;;;1.22;100.00
28354;BME280;15603;50.878;8.036;2023-11-19T02:16:52;143555.41;;;1.22;100.00
28354;BME280;15603;50.878;8.036;2023-11-19T02:19:20;143581.97;;;1.33;100.00
28354;BME280;15603;50.878;8.036;2023-11-19T02:21:47;143598.88;;;1.41;100.00
28354;BME280;15603;50.878;8.036;2023-11-19T02:24:18;143584.34;;;1.34;100.00
28354;BME280;15603;50.878;8.036;2023-11-19T02:29:53;143555.41;;;1.22;100.00
28354;BME280;15603;50.878;8.036;2023-11-19T02:32:27;143476.97;;;0.89;100.00
28354;BME280;15603;50.878;8.036;2023-11-19T02:34:56;143620.56;;;1.50;100.00
28354;BME280;15603;50.878;8.036;2023-11-19T02:37:38;143530.03;;;1.11;100.00
28354;BME280;15603;50.878;8.036;2023-11-19T02:40:06;143464.88;;;0.84;100.00
28354;BME280;15603;50.878;8.036;2023-11-19T02:42:36;143620.56;;;1.50;100.00
28354;BME280;15603;50.878;8.036;2023-11-19T02:45:03;143581.97;;;1.33;100.00
28354;BME280;15603;50.878;8.036;2023-11-19T02:47:33;143545.75;;;1.18;100.00
28354;BME280;15603;50.878;8.036;2023-11-19T02:50:01;143552.97;;;1.21;100.00
28354;BME280;15603;50.878;8.036;2023-11-19T02:52:28;143610.91;;;1.46;100.00
28354;BME280;15603;50.878;8.036;2023-11-19T02:54:55;143656.78;;;1.65;100.00
28354;BME280;15603;50.878;8.036;2023-11-19T02:57:23;143665.25;;;1.69;100.00
28354;BME280;15603;50.878;8.036;2023-11-19T02:59:51;143676.13;;;1.73;100.00
28354;BME280;15603;50.878;8.036;2023-11-19T03:02:19;143673.69;;;1.72;100.00
28354;BME280;15603;50.878;8.036;2023-11-19T03:04:46;143693.00;;;1.81;100.00
28354;BME280;15603;50.878;8.036;2023-11-19T03:07:14;143688.19;;;1.79;100.00
28354;BME280;15603;50.878;8.036;2023-11-19T03:09:41;143702.66;;;1.85;100.00
28354;BME280;15603;50.878;8.036;2023-11-19T03:12:08;143700.28;;;1.84;100.00
28354;BME280;15603;50.878;8.036;2023-11-19T03:14:36;143712.38;;;1.89;100.00
28354;BME280;15603;50.878;8.036;2023-11-19T03:17:04;143712.38;;;1.89;100.00
28354;BME280;15603;50.878;8.036;2023-11-19T03:19:32;143705.09;;;1.86;100.00
28354;BME280;15603;50.878;8.036;2023-11-19T03:22:01;143717.19;;;1.91;100.00
28354;BME280;15603;50.878;8.036;2023-11-19T03:24:29;143639.91;;;1.58;100.00
28354;BME280;15603;50.878;8.036;2023-11-19T03:26:56;143714.75;;;1.90;100.00
28354;BME280;15603;50.878;8.036;2023-11-19T03:29:23;143728.03;;;1.95;100.00
28354;BME280;15603;50.878;8.036;2023-11-19T03:31:50;143639.91;;;1.58;100.00
28354;BME280;15603;50.878;8.036;2023-11-19T03:34:17;143734.06;;;1.98;100.00
28354;BME280;15603;50.878;8.036;2023-11-19T03:36:45;143715.94;;;1.90;100.00
28354;BME280;15603;50.878;8.036;2023-11-19T03:39:12;143715.94;;;1.90;100.00
28354;BME280;15603;50.878;8.036;2023-11-19T03:41:40;143707.53;;;1.87;100.00
28354;BME280;15603;50.878;8.036;2023-11-19T03:44:08;143719.59;;;1.92;100.00
28354;BME280;15603;50.878;8.036;2023-11-19T03:46:35;143731.69;;;1.97;100.00
28354;BME280;15603;50.878;8.036;2023-11-19T03:49:03;143737.69;;;2.00;100.00
28354;BME280;15603;50.878;8.036;2023-11-19T03:51:33;143741.34;;;2.01;100.00
28354;BME280;15603;50.878;8.036;2023-11-19T03:54:02;143736.50;;;1.99;100.00
28354;BME280;15603;50.878;8.036;2023-11-19T03:56:29;143714.75;;;1.90;100.00
28354;BME280;15603;50.878;8.036;2023-11-19T03:58:57;143708.72;;;1.87;100.00
28354;BME280;15603;50.878;8.036;2023-11-19T04:01:25;143691.81;;;1.80;100.00
28354;BME280;15603;50.878;8.036;2023-11-19T04:03:52;143707.53;;;1.87;100.00
28354;BME280;15603;50.878;8.036;2023-11-19T04:06:19;143728.03;;;1.95;100.00
28354;BME280;15603;50.878;8.036;2023-11-19T04:08:46;143731.69;;;1.97;100.00
28354;BME280;15603;50.878;8.036;2023-11-19T04:11:13;143696.66;;;1.82;100.00
28354;BME280;15603;50.878;8.036;2023-11-19T04:13:40;143731.69;;;1.97;100.00
28354;BME280;15603;50.878;8.036;2023-11-19T04:16:08;143738.91;;;2.00;100.00
28354;BME280;15603;50.878;8.036;2023-11-19T04:18:35;143744.97;;;2.03;100.00
28354;BME280;15603;50.878;8.036;2023-11-19T04:21:06;143748.59;;;2.04;100.00
28354;BME280;15603;50.878;8.036;2023-11-19T04:23:33;143722.03;;;1.93;100.00
28354;BME280;15603;50.878;8.036;2023-11-19T04:26:03;143758.25;;;2.08;100.00
28354;BME280;15603;50.878;8.036;2023-11-19T04:28:34;143729.25;;;1.96;100.00
28354;BME280;15603;50.878;8.036;2023-11-19T04:31:02;143738.91;;;2.00;100.00
28354;BME280;15603;50.878;8.036;2023-11-19T04:33:30;143755.81;;;2.07;100.00
28354;BME280;15603;50.878;8.036;2023-11-19T04:35:57;143753.44;;;2.06;100.00
28354;BME280;15603;50.878;8.036;2023-11-19T04:38:24;143738.91;;;2.00;100.00
28354;BME280;15603;50.878;8.036;2023-11-19T04:40:53;143750.97;;;2.05;100.00
28354;BME280;15603;50.878;8.036;2023-11-19T04:43:20;143713.56;;;1.89;100.00
28354;BME280;15603;50.878;8.036;2023-11-19T04:45:48;143755.81;;;2.07;100.00
28354;BME280;15603;50.878;8.036;2023-11-19T04:48:15;143753.44;;;2.06;100.00
28354;BME280;15603;50.878;8.036;2023-11-19T04:50:42;143763.09;;;2.10;100.00
28354;BME280;15603;50.878;8.036;2023-11-19T04:53:09;143767.91;;;2.12;100.00
28354;BME280;15603;50.878;8.036;2023-11-19T04:55:36;143763.09;;;2.10;100.00
28354;BME280;15603;50.878;8.036;2023-11-19T04:58:03;143753.44;;;2.06;100.00
28354;BME280;15603;50.878;8.036;2023-11-19T05:00:30;143777.56;;;2.16;100.00
28354;BME280;15603;50.878;8.036;2023-11-19T05:02:57;143777.56;;;2.16;100.00
28354;BME280;15603;50.878;8.036;2023-11-19T05:05:24;143784.84;;;2.20;100.00
28354;BME280;15603;50.878;8.036;2023-11-19T05:07:52;143761.88;;;2.10;100.00
28354;BME280;15603;50.878;8.036;2023-11-19T05:10:19;143760.63;;;2.09;100.00
28354;BME280;15603;50.878;8.036;2023-11-19T05:12:46;143676.13;;;1.73;100.00
28354;BME280;15603;50.878;8.036;2023-11-19T05:15:14;143753.44;;;2.06;100.00
28354;BME280;15603;50.878;8.036;2023-11-19T05:17:41;143758.25;;;2.08;100.00
28354;BME280;15603;50.878;8.036;2023-11-19T05:20:08;143717.19;;;1.91;100.00
28354;BME280;15603;50.878;8.036;2023-11-19T05:22:42;143709.94;;;1.88;100.00
28354;BME280;15603;50.878;8.036;2023-11-19T05:25:09;143726.84;;;1.95;100.00
28354;BME280;15603;50.878;8.036;2023-11-19T05:27:38;143743.78;;;2.02;100.00
28354;BME280;15603;50.878;8.036;2023-11-19T05:30:05;143734.06;;;1.98;100.00
28354;BME280;15603;50.878;8.036;2023-11-19T05:32:34;143748.59;;;2.04;100.00
28354;BME280;15603;50.878;8.036;2023-11-19T05:35:01;143767.91;;;2.12;100.00
28354;BME280;15603;50.878;8.036;2023-11-19T05:37:28;143782.41;;;2.19;100.00
28354;BME280;15603;50.878;8.036;2023-11-19T05:39:55;143793.25;;;2.23;100.00
28354;BME280;15603;50.878;8.036;2023-11-19T05:42:23;143806.53;;;2.29;100.00
28354;BME280;15603;50.878;8.036;2023-11-19T05:44:51;143798.13;;;2.25;100.00
28354;BME280;15603;50.878;8.036;2023-11-19T05:47:19;143799.31;;;2.26;100.00
28354;BME280;15603;50.878;8.036;2023-11-19T05:49:46;143717.19;;;1.91;100.00
28354;BME280;15603;50.878;8.036;2023-11-19T05:52:13;143775.13;;;2.15;100.00
28354;BME280;15603;50.878;8.036;2023-11-19T05:54:40;143775.13;;;2.15;100.00
28354;BME280;15603;50.878;8.036;2023-11-19T05:57:08;143782.41;;;2.19;100.00
28354;BME280;15603;50.878;8.036;2023-11-19T05:59:36;143703.91;;;1.85;100.00
28354;BME280;15603;50.878;8.036;2023-11-19T06:02:04;143789.66;;;2.22;100.00
28354;BME280;15603;50.878;8.036;2023-11-19T06:04:31;143784.84;;;2.20;100.00
28354;BME280;15603;50.878;8.036;2023-11-19T06:06:58;143796.88;;;2.25;100.00
28354;BME280;15603;50.878;8.036;2023-11-19T06:09:25;143748.59;;;2.04;100.00
28354;BME280;15603;50.878;8.036;2023-11-19T06:11:52;143750.97;;;2.05;100.00
28354;BME280;15603;50.878;8.036;2023-11-19T06:14:19;143697.84;;;1.83;100.00
28354;BME280;15603;50.878;8.036;2023-11-19T06:16:46;143787.22;;;2.21;100.00
28354;BME280;15603;50.878;8.036;2023-11-19T06:19:14;143717.19;;;1.91;100.00
28354;BME280;15603;50.878;8.036;2023-11-19T06:21:41;143777.56;;;2.16;100.00
28354;BME280;15603;50.878;8.036;2023-11-19T06:24:08;143748.59;;;2.04;100.00
28354;BME280;15603;50.878;8.036;2023-11-19T06:26:36;143741.34;;;2.01;100.00
28354;BME280;15603;50.878;8.036;2023-11-19T06:29:03;143744.97;;;2.03;100.00
28354;BME280;15603;50.878;8.036;2023-11-19T06:31:30;143755.81;;;2.07;100.00
28354;BME280;15603;50.878;8.036;2023-11-19T06:33:57;143729.25;;;1.96;100.00
28354;BME280;15603;50.878;8.036;2023-11-19T06:36:25;143731.69;;;1.97;100.00
28354;BME280;15603;50.878;8.036;2023-11-19T06:38:53;143736.50;;;1.99;100.00
28354;BME280;15603;50.878;8.036;2023-11-19T06:41:20;143757.00;;;2.08;100.00
28354;BME280;15603;50.878;8.036;2023-11-19T06:43:48;143757.00;;;2.08;100.00
28354;BME280;15603;50.878;8.036;2023-11-19T06:46:16;143743.78;;;2.02;100.00
28354;BME280;15603;50.878;8.036;2023-11-19T06:48:44;143719.59;;;1.92;100.00
28354;BME280;15603;50.878;8.036;2023-11-19T06:51:12;143584.34;;;1.34;100.00
28354;BME280;15603;50.878;8.036;2023-11-19T06:53:40;143679.72;;;1.75;100.00
28354;BME280;15603;50.878;8.036;2023-11-19T06:56:20;143718.38;;;1.91;100.00
28354;BME280;15603;50.878;8.036;2023-11-19T06:58:49;143749.78;;;2.05;100.00
28354;BME280;15603;50.878;8.036;2023-11-19T07:01:17;143753.44;;;2.06;100.00
28354;BME280;15603;50.878;8.036;2023-11-19T07:03:45;143767.91;;;2.12;100.00
28354;BME280;15603;50.878;8.036;2023-11-19T07:06:14;143767.91;;;2.12;100.00
28354;BME280;15603;50.878;8.036;2023-11-19T07:08:42;143740.13;;;2.01;100.00
28354;BME280;15603;50.878;8.036;2023-11-19T07:11:12;143777.56;;;2.16;100.00
28354;BME280;15603;50.878;8.036;2023-11-19T07:13:41;143761.88;;;2.10;100.00
28354;BME280;15603;50.878;8.036;2023-11-19T07:16:08;143777.56;;;2.16;100.00
28354;BME280;15603;50.878;8.036;2023-11-19T07:18:37;143763.09;;;2.10;100.00
28354;BME280;15603;50.878;8.036;2023-11-19T07:21:04;143767.91;;;2.12;100.00
28354;BME280;15603;50.878;8.036;2023-11-19T07:23:31;143765.47;;;2.11;100.00
28354;BME280;15603;50.878;8.036;2023-11-19T07:26:00;143723.22;;;1.93;100.00
28354;BME280;15603;50.878;8.036;2023-11-19T07:28:27;143801.72;;;2.27;100.00
28354;BME280;15603;50.878;8.036;2023-11-19T07:30:55;143807.78;;;2.29;100.00
28354;BME280;15603;50.878;8.036;2023-11-19T07:33:23;143794.50;;;2.24;100.00
28354;BME280;15603;50.878;8.036;2023-11-19T07:35:50;143801.72;;;2.27;100.00
28354;BME280;15603;50.878;8.036;2023-11-19T07:38:17;143799.31;;;2.26;100.00
28354;BME280;15603;50.878;8.036;2023-11-19T07:40:45;143769.09;;;2.13;100.00
28354;BME280;15603;50.878;8.036;2023-11-19T07:43:15;143742.53;;;2.02;100.00
28354;BME280;15603;50.878;8.036;2023-11-19T07:45:42;143748.59;;;2.04;100.00
28354;BME280;15603;50.878;8.036;2023-11-19T07:48:11;143714.75;;;1.90;100.00
28354;BME280;15603;50.878;8.036;2023-11-19T07:50:40;143700.28;;;1.84;100.00
28354;BME280;15603;50.878;8.036;2023-11-19T07:53:10;143706.28;;;1.86;100.00
28354;BME280;15603;50.878;8.036;2023-11-19T07:55:39;143695.44;;;1.82;100.00
28354;BME280;15603;50.878;8.036;2023-11-19T07:58:09;143717.19;;;1.91;100.00
28354;BME280;15603;50.878;8.036;2023-11-19T08:00:36;143743.78;;;2.02;100.00
28354;BME280;15603;50.878;8.036;2023-11-19T08:03:04;143758.25;;;2.08;100.00
28354;BME280;15603;50.878;8.036;2023-11-19T08:05:32;143781.19;;;2.18;100.00
28354;BME280;15603;50.878;8.036;2023-11-19T08:07:59;143782.41;;;2.19;100.00
28354;BME280;15603;50.878;8.036;2023-11-19T08:10:26;143782.41;;;2.19;100.00
28354;BME280;15603;50.878;8.036;2023-11-19T08:12:54;143816.25;;;2.33;100.00
28354;BME280;15603;50.878;8.036;2023-11-19T08:15:21;143825.91;;;2.37;100.00
28354;BME280;15603;50.878;8.036;2023-11-19T08:17:51;143833.13;;;2.40;100.00
28354;BME280;15603;50.878;8.036;2023-11-19T08:20:18;143893.56;;;2.66;100.00
28354;BME280;15603;50.878;8.036;2023-11-19T08:22:46;143831.94;;;2.40;100.00
28354;BME280;15603;50.878;8.036;2023-11-19T08:25:13;143908.06;;;2.72;100.00
28354;BME280;15603;50.878;8.036;2023-11-19T08:27:40;143874.19;;;2.58;100.00
28354;BME280;15603;50.878;8.036;2023-11-19T08:30:08;143857.31;;;2.50;100.00
28354;BME280;15603;50.878;8.036;2023-11-19T08:32:35;143854.88;;;2.49;100.00
28354;BME280;15603;50.878;8.036;2023-11-19T08:35:03;143871.81;;;2.57;100.00
28354;BME280;15603;50.878;8.036;2023-11-19T08:37:30;143883.84;;;2.62;100.00
28354;BME280;15603;50.878;8.036;2023-11-19T08:39:58;143885.09;;;2.62;100.00
28354;BME280;15603;50.878;8.036;2023-11-19T08:42:26;143881.47;;;2.61;100.00
28354;BME280;15603;50.878;8.036;2023-11-19T08:44:53;143892.31;;;2.65;100.00
28354;BME280;15603;50.878;8.036;2023-11-19T08:47:21;143905.63;;;2.71;100.00
28354;BME280;15603;50.878;8.036;2023-11-19T08:49:52;143888.75;;;2.64;100.00
28354;BME280;15603;50.878;8.036;2023-11-19T08:52:23;143895.97;;;2.67;100.00
28354;BME280;15603;50.878;8.036;2023-11-19T08:54:50;143865.72;;;2.54;100.00
28354;BME280;15603;50.878;8.036;2023-11-19T08:57:17;143874.19;;;2.58;100.00
28354;BME280;15603;50.878;8.036;2023-11-19T08:59:44;143824.66;;;2.36;100.00
28354;BME280;15603;50.878;8.036;2023-11-19T09:02:13;143874.19;;;2.58;100.00
28354;BME280;15603;50.878;8.036;2023-11-19T09:04:40;143866.97;;;2.54;100.00
28354;BME280;15603;50.878;8.036;2023-11-19T09:07:08;143813.81;;;2.32;100.00
28354;BME280;15603;50.878;8.036;2023-11-19T09:09:38;143893.56;;;2.66;100.00
28354;BME280;15603;50.878;8.036;2023-11-19T09:12:05;143927.38;;;2.80;100.00
28354;BME280;15603;50.878;8.036;2023-11-19T09:14:32;143903.22;;;2.70;100.00
28354;BME280;15603;50.878;8.036;2023-11-19T09:16:59;143908.06;;;2.72;100.00
28354;BME280;15603;50.878;8.036;2023-11-19T09:19:27;143920.13;;;2.77;100.00
28354;BME280;15603;50.878;8.036;2023-11-19T09:21:54;143909.25;;;2.72;100.00
28354;BME280;15603;50.878;8.036;2023-11-19T09:24:21;143914.09;;;2.74;100.00
28354;BME280;15603;50.878;8.036;2023-11-19T09:26:48;143953.97;;;2.91;100.00
28354;BME280;15603;50.878;8.036;2023-11-19T09:29:15;143998.69;;;3.10;100.00
28354;BME280;15603;50.878;8.036;2023-11-19T09:31:43;144026.50;;;3.22;100.00
28354;BME280;15603;50.878;8.036;2023-11-19T09:34:10;144034.97;;;3.26;100.00
28354;BME280;15603;50.878;8.036;2023-11-19T09:36:37;144059.13;;;3.36;100.00
28354;BME280;15603;50.878;8.036;2023-11-19T09:39:04;144079.72;;;3.45;100.00
28354;BME280;15603;50.878;8.036;2023-11-19T09:41:32;144082.09;;;3.46;100.00
28354;BME280;15603;50.878;8.036;2023-11-19T09:43:59;144132.88;;;3.67;100.00
28354;BME280;15603;50.878;8.036;2023-11-19T09:46:28;144176.44;;;3.86;100.00
28354;BME280;15603;50.878;8.036;2023-11-19T09:48:55;144160.72;;;3.79;100.00
28354;BME280;15603;50.878;8.036;2023-11-19T09:51:24;144140.16;;;3.70;100.00
28354;BME280;15603;50.878;8.036;2023-11-19T09:53:51;144146.19;;;3.73;100.00
28354;BME280;15603;50.878;8.036;2023-11-19T09:56:18;144178.88;;;3.87;100.00
28354;BME280;15603;50.878;8.036;2023-11-19T09:58:46;144164.31;;;3.81;100.00
28354;BME280;15603;50.878;8.036;2023-11-19T10:01:15;144192.13;;;3.92;100.00
28354;BME280;15603;50.878;8.036;2023-11-19T10:03:46;144253.84;;;4.19;100.00
28354;BME280;15603;50.878;8.036;2023-11-19T10:06:15;144292.59;;;4.35;100.00
28354;BME280;15603;50.878;8.036;2023-11-19T10:08:43;144314.34;;;4.44;100.00
28354;BME280;15603;50.878;8.036;2023-11-19T10:11:10;144303.47;;;4.40;100.00
28354;BME280;15603;50.878;8.036;2023-11-19T10:13:38;144389.38;;;4.76;100.00
28354;BME280;15603;50.878;8.036;2023-11-19T10:16:10;144391.78;;;4.77;100.00
28354;BME280;15603;50.878;8.036;2023-11-19T10:18:46;144319.16;;;4.46;100.00
28354;BME280;15603;50.878;8.036;2023-11-19T10:21:13;144324.06;;;4.48;100.00
28354;BME280;15603;50.878;8.036;2023-11-19T10:23:56;144296.19;;;4.37;100.00
28354;BME280;15603;50.878;8.036;2023-11-19T10:26:27;144290.16;;;4.34;100.00
28354;BME280;15603;50.878;8.036;2023-11-19T10:28:55;144244.19;;;4.15;100.00
28354;BME280;15603;50.878;8.036;2023-11-19T10:31:22;144232.06;;;4.09;100.00
28354;BME280;15603;50.878;8.036;2023-11-19T10:33:52;144190.94;;;3.92;100.00
28354;BME280;15603;50.878;8.036;2023-11-19T10:36:20;144218.75;;;4.04;100.00
28354;BME280;15603;50.878;8.036;2023-11-19T10:38:54;144324.06;;;4.48;100.00
28354;BME280;15603;50.878;8.036;2023-11-19T10:41:31;144347.03;;;4.58;100.00
28354;BME280;15603;50.878;8.036;2023-11-19T10:43:59;144333.72;;;4.52;99.85
28354;BME280;15603;50.878;8.036;2023-11-19T10:46:40;144326.44;;;4.49;99.63
28354;BME280;15603;50.878;8.036;2023-11-19T10:49:08;144348.25;;;4.59;99.57
28354;BME280;15603;50.878;8.036;2023-11-19T10:51:35;144309.50;;;4.42;98.58
28354;BME280;15603;50.878;8.036;2023-11-19T10:54:04;144331.28;;;4.51;100.00
28354;BME280;15603;50.878;8.036;2023-11-19T10:56:34;144304.66;;;4.40;99.91
28354;BME280;15603;50.878;8.036;2023-11-19T10:59:02;144287.75;;;4.33;99.36
28354;BME280;15603;50.878;8.036;2023-11-19T11:01:48;144290.16;;;4.34;98.57
28354;BME280;15603;50.878;8.036;2023-11-19T11:04:19;144265.97;;;4.24;98.73
28354;BME280;15603;50.878;8.036;2023-11-19T11:06:50;144244.19;;;4.15;98.76
28354;BME280;15603;50.878;8.036;2023-11-19T11:09:18;144263.53;;;4.23;100.00
28354;BME280;15603;50.878;8.036;2023-11-19T11:11:47;144257.50;;;4.20;99.35
28354;BME280;15603;50.878;8.036;2023-11-19T11:14:16;144244.19;;;4.15;97.51
28354;BME280;15603;50.878;8.036;2023-11-19T11:16:46;144261.13;;;4.22;98.75
28354;BME280;15603;50.878;8.036;2023-11-19T11:19:15;144239.34;;;4.12;97.83
28354;BME280;15603;50.878;8.036;2023-11-19T11:21:47;144251.47;;;4.18;98.88
28354;BME280;15603;50.878;8.036;2023-11-19T11:24:30;144324.06;;;4.48;99.37
28354;BME280;15603;50.878;8.036;2023-11-19T11:32:33;144481.38;;;5.15;94.71
28354;BME280;15603;50.878;8.036;2023-11-19T11:35:44;144425.69;;;4.91;96.37
28354;BME280;15603;50.878;8.036;2023-11-19T11:38:21;144401.50;;;4.81;96.57
28354;BME280;15603;50.878;8.036;2023-11-19T11:43:47;144209.09;;;4.00;95.31
28354;BME280;15603;50.878;8.036;2023-11-19T11:49:05;144288.94;;;4.33;96.44
28354;BME280;15603;50.878;8.036;2023-11-19T11:57:02;144256.28;;;4.20;98.37
28354;BME280;15603;50.878;8.036;2023-11-19T12:02:11;144241.72;;;4.13;99.69
28354;BME280;15603;50.878;8.036;2023-11-19T12:04:42;144241.72;;;4.13;98.12
28354;BME280;15603;50.878;8.036;2023-11-19T12:07:14;144128.03;;;3.65;98.71
28354;BME280;15603;50.878;8.036;2023-11-19T12:09:47;144120.81;;;3.62;100.00
28354;BME280;15603;50.878;8.036;2023-11-19T12:17:37;144244.19;;;4.15;100.00
28354;BME280;15603;50.878;8.036;2023-11-19T12:20:07;144309.50;;;4.42;100.00
28354;BME280;15603;50.878;8.036;2023-11-19T12:22:39;144327.66;;;4.50;100.00
28354;BME280;15603;50.878;8.036;2023-11-19T12:25:07;144309.50;;;4.42;100.00
28354;BME280;15603;50.878;8.036;2023-11-19T12:27:36;144320.41;;;4.47;98.95
28354;BME280;15603;50.878;8.036;2023-11-19T12:30:05;144240.53;;;4.13;98.49
28354;BME280;15603;50.878;8.036;2023-11-19T12:32:42;144240.53;;;4.13;100.00
28354;BME280;15603;50.878;8.036;2023-11-19T12:35:11;144212.72;;;4.01;100.00
28354;BME280;15603;50.878;8.036;2023-11-19T12:37:41;144174.00;;;3.85;100.00
28354;BME280;15603;50.878;8.036;2023-11-19T12:42:45;144135.31;;;3.68;100.00
28354;BME280;15603;50.878;8.036;2023-11-19T12:45:12;144077.28;;;3.44;100.00
28354;BME280;15603;50.878;8.036;2023-11-19T12:47:40;144079.72;;;3.45;100.00
28354;BME280;15603;50.878;8.036;2023-11-19T12:50:09;144043.44;;;3.29;100.00
28354;BME280;15603;50.878;8.036;2023-11-19T12:52:36;144077.28;;;3.44;100.00
28354;BME280;15603;50.878;8.036;2023-11-19T12:55:23;144036.16;;;3.26;100.00
28354;BME280;15603;50.878;8.036;2023-11-19T12:57:54;144021.66;;;3.20;100.00
28354;BME280;15603;50.878;8.036;2023-11-19T13:00:24;144048.28;;;3.31;100.00
28354;BME280;15603;50.878;8.036;2023-11-19T13:02:53;144061.56;;;3.37;100.00
28354;BME280;15603;50.878;8.036;2023-11-19T13:08:13;144090.56;;;3.49;100.00
28354;BME280;15603;50.878;8.036;2023-11-19T13:10:53;144111.16;;;3.58;100.00
28354;BME280;15603;50.878;8.036;2023-11-19T13:13:22;144084.53;;;3.47;100.00
28354;BME280;15603;50.878;8.036;2023-11-19T13:15:50;144085.75;;;3.47;100.00
28354;BME280;15603;50.878;8.036;2023-11-19T13:18:17;144106.31;;;3.56;100.00
28354;BME280;15603;50.878;8.036;2023-11-19T13:20:44;144101.44;;;3.54;100.00
28354;BME280;15603;50.878;8.036;2023-11-19T13:23:11;144061.56;;;3.37;100.00
28354;BME280;15603;50.878;8.036;2023-11-19T13:25:38;144108.72;;;3.57;100.00
28354;BME280;15603;50.878;8.036;2023-11-19T13:28:06;144153.47;;;3.76;100.00
28354;BME280;15603;50.878;8.036;2023-11-19T13:30:33;144170.41;;;3.83;100.00